Time;durP1;ratioP1;P1;durP2;ratioP2;P2;SDS_P1;SDS_P2;PMS_P1;PMS_P2;Temp;Humidity;BMP_temperature;BMP_pressure;BME280_temperature;BME280_humidity;BME280_pressure;Samples;Min_cycle;Max_cycle;Signal;HPM_P1;HPM_P2
2022/01/09 00:00:23;;;;;;;10.73;8.38;;;4.20;99.90;;;;;;5050178;28;20049;-65
2022/01/09 00:02:50;;;;;;;9.30;7.70;;;4.20;99.90;;;;;;5059021;28;20436;-64
2022/01/09 00:05:16;;;;;;;8.27;6.80;;;4.30;99.90;;;;;;5070019;28;20059;-64
2022/01/09 00:07:42;;;;;;;9.77;7.70;;;4.20;99.90;;;;;;5070080;28;20102;-63
2022/01/09 00:10:10;;;;;;;8.05;6.95;;;4.20;99.90;;;;;;5069823;28;20040;-63
2022/01/09 00:12:36;;;;;;;11.35;8.38;;;4.20;99.90;;;;;;5069361;28;20412;-66
2022/01/09 00:15:03;;;;;;;8.68;6.60;;;4.10;99.90;;;;;;5069778;28;20048;-63
2022/01/09 00:17:29;;;;;;;11.93;9.38;;;4.20;99.90;;;;;;5071356;28;20081;-63
2022/01/09 00:19:55;;;;;;;8.20;6.22;;;4.20;99.90;;;;;;5069471;28;20486;-63
2022/01/09 00:22:32;;;;;;;9.88;7.55;;;4.20;99.90;;;;;;5068532;28;20131;-62
2022/01/09 00:24:57;;;;;;;10.23;8.38;;;4.20;99.90;;;;;;5068867;28;20109;-65
2022/01/09 00:27:23;;;;;;;11.80;9.48;;;4.20;99.90;;;;;;5070322;28;20052;-67
2022/01/09 00:29:49;;;;;;;9.80;7.85;;;4.20;99.90;;;;;;5069315;28;20513;-65
2022/01/09 00:32:15;;;;;;;8.95;7.03;;;4.20;99.90;;;;;;5069124;28;20076;-65
2022/01/09 00:34:40;;;;;;;10.73;9.43;;;4.20;99.90;;;;;;5069405;28;20045;-65
2022/01/09 00:37:06;;;;;;;9.85;7.70;;;4.20;99.90;;;;;;5069853;28;20045;-65
2022/01/09 00:39:32;;;;;;;8.93;6.40;;;4.20;99.90;;;;;;5070067;28;20048;-65
2022/01/09 00:41:57;;;;;;;10.98;9.13;;;4.20;99.90;;;;;;5068324;28;20043;-65
2022/01/09 00:44:23;;;;;;;10.55;9.02;;;4.20;99.90;;;;;;5085662;28;20056;-65
2022/01/09 00:46:49;;;;;;;10.10;7.93;;;4.20;99.90;;;;;;5100658;28;20052;-65
2022/01/09 00:49:14;;;;;;;8.98;7.07;;;4.20;99.90;;;;;;5080811;28;20128;-66
2022/01/09 00:51:40;;;;;;;9.80;7.82;;;4.20;99.90;;;;;;5087016;28;20048;-68
2022/01/09 00:54:06;;;;;;;10.40;8.23;;;4.20;99.90;;;;;;5083598;28;20114;-65
2022/01/09 00:56:32;;;;;;;7.80;6.47;;;4.20;99.90;;;;;;5085438;28;20056;-65
2022/01/09 00:58:57;;;;;;;10.07;8.45;;;4.20;99.90;;;;;;5074840;28;20036;-65
2022/01/09 01:01:23;;;;;;;8.93;6.85;;;4.20;99.90;;;;;;5084902;28;20044;-66
2022/01/09 01:03:49;;;;;;;9.15;7.45;;;4.30;99.90;;;;;;5068489;28;20047;-65
2022/01/09 01:06:15;;;;;;;11.45;7.20;;;4.20;99.90;;;;;;5068194;28;20049;-65
2022/01/09 01:08:40;;;;;;;8.90;7.00;;;4.20;99.90;;;;;;5069161;28;20251;-67
2022/01/09 01:11:06;;;;;;;11.15;9.15;;;4.20;99.90;;;;;;5069804;28;20524;-64
2022/01/09 01:13:32;;;;;;;10.30;8.77;;;4.20;99.90;;;;;;5069315;28;20081;-65
2022/01/09 01:15:58;;;;;;;20.70;9.30;;;4.20;99.90;;;;;;5067187;28;20059;-65
2022/01/09 01:18:24;;;;;;;13.32;10.52;;;4.20;99.90;;;;;;5071827;28;20071;-64
2022/01/09 01:20:50;;;;;;;13.05;10.73;;;4.10;99.90;;;;;;5079459;28;20048;-65
2022/01/09 01:23:15;;;;;;;14.05;11.63;;;4.10;99.90;;;;;;5055454;28;20044;-65
2022/01/09 01:25:44;;;;;;;14.25;11.60;;;4.10;99.90;;;;;;5071589;28;20492;-65
2022/01/09 01:28:10;;;;;;;12.52;9.88;;;4.10;99.90;;;;;;5072910;28;20132;-65
2022/01/09 01:30:36;;;;;;;13.05;10.80;;;4.20;99.90;;;;;;5073977;28;20135;-65
2022/01/09 01:33:01;;;;;;;13.93;10.45;;;4.10;99.90;;;;;;5072283;28;20573;-64
2022/01/09 01:35:27;;;;;;;14.63;10.70;;;4.40;99.90;;;;;;5072462;28;20049;-64
2022/01/09 01:37:53;;;;;;;14.10;11.00;;;4.10;99.90;;;;;;5072228;28;20102;-65
2022/01/09 01:40:19;;;;;;;13.50;11.50;;;4.20;99.90;;;;;;5072962;28;20076;-64
2022/01/09 01:42:46;;;;;;;14.70;10.65;;;4.20;99.90;;;;;;5053000;28;20424;-67
2022/01/09 01:45:13;;;;;;;15.48;10.85;;;4.40;99.90;;;;;;5035168;28;20061;-64
2022/01/09 01:47:39;;;;;;;15.07;11.65;;;4.20;99.90;;;;;;5054742;28;20063;-64
2022/01/09 01:50:07;;;;;;;15.90;11.13;;;4.20;99.90;;;;;;5072203;28;20056;-64
2022/01/09 01:52:40;;;;;;;14.85;12.10;;;4.20;99.90;;;;;;5077426;28;20045;-64
2022/01/09 01:55:09;;;;;;;15.07;11.73;;;4.20;99.90;;;;;;5059599;28;20336;-64
2022/01/09 01:57:38;;;;;;;15.60;11.77;;;4.20;99.90;;;;;;5072107;28;20055;-65
2022/01/09 02:00:07;;;;;;;15.50;12.15;;;4.20;99.90;;;;;;5070454;28;20170;-65
2022/01/09 02:02:33;;;;;;;17.52;12.25;;;4.20;99.90;;;;;;5082954;28;20118;-64
2022/01/09 02:04:58;;;;;;;17.92;12.50;;;4.20;99.90;;;;;;5092174;28;20205;-65
2022/01/09 02:07:27;;;;;;;15.98;11.88;;;4.20;99.90;;;;;;5071145;28;20063;-64
2022/01/09 02:09:53;;;;;;;15.85;12.05;;;4.20;99.90;;;;;;5051885;28;20440;-65
2022/01/09 02:12:19;;;;;;;19.08;12.02;;;4.30;99.90;;;;;;5072184;28;20143;-64
2022/01/09 02:14:47;;;;;;;16.88;11.90;;;4.30;99.90;;;;;;5071260;28;20132;-64
2022/01/09 02:17:20;;;;;;;17.33;12.60;;;4.20;99.90;;;;;;5071529;28;20529;-64
2022/01/09 02:19:56;;;;;;;16.55;12.60;;;4.20;99.90;;;;;;5054717;28;20048;-64
2022/01/09 02:22:25;;;;;;;17.02;12.73;;;4.20;99.90;;;;;;5056105;28;20460;-64
2022/01/09 02:24:51;;;;;;;17.98;13.02;;;4.20;99.90;;;;;;5092684;28;20058;-64
2022/01/09 02:27:17;;;;;;;18.27;12.60;;;4.30;99.90;;;;;;5090921;28;20143;-65
2022/01/09 02:29:47;;;;;;;18.98;13.00;;;4.30;99.90;;;;;;5073447;28;20127;-65
2022/01/09 02:32:15;;;;;;;17.38;13.02;;;4.30;99.90;;;;;;5071149;28;20079;-66
2022/01/09 02:34:44;;;;;;;18.60;12.80;;;4.30;99.90;;;;;;5054152;28;20482;-65
2022/01/09 02:37:09;;;;;;;17.67;12.25;;;4.30;99.90;;;;;;5070351;28;20476;-65
2022/01/09 02:39:35;;;;;;;18.33;12.80;;;4.20;99.90;;;;;;5071502;28;20119;-65
2022/01/09 02:42:01;;;;;;;17.88;11.68;;;4.30;99.90;;;;;;5071497;28;20087;-65
2022/01/09 02:44:26;;;;;;;19.55;12.57;;;4.30;99.90;;;;;;5071290;28;20060;-65
2022/01/09 02:47:02;;;;;;;18.73;13.25;;;4.30;99.90;;;;;;5071726;28;20049;-65
2022/01/09 02:49:29;;;;;;;18.60;10.88;;;4.30;99.90;;;;;;5071708;28;20040;-65
2022/01/09 02:51:58;;;;;;;18.33;10.52;;;4.30;99.90;;;;;;5071058;28;20048;-67
2022/01/09 02:57:08;;;;;;;16.33;9.70;;;4.40;99.90;;;;;;5070588;28;20078;-65
2022/01/09 02:59:34;;;;;;;14.90;8.15;;;4.40;99.90;;;;;;5069396;28;20040;-64
2022/01/09 03:02:00;;;;;;;16.02;7.22;;;4.60;99.90;;;;;;5069636;28;20062;-65
2022/01/09 03:04:26;;;;;;;11.40;7.05;;;4.50;99.90;;;;;;5068382;28;20082;-64
2022/01/09 03:06:51;;;;;;;13.93;6.60;;;4.60;99.90;;;;;;5070697;28;20051;-64
2022/01/09 03:09:18;;;;;;;13.38;7.03;;;4.60;99.90;;;;;;5068912;28;20055;-65
2022/01/09 03:11:47;;;;;;;16.67;7.25;;;4.70;99.90;;;;;;5070906;28;20501;-64
2022/01/09 03:14:12;;;;;;;15.35;6.20;;;4.70;99.90;;;;;;5070843;28;20080;-64
2022/01/09 03:16:38;;;;;;;13.77;5.57;;;4.80;99.90;;;;;;5071253;28;20503;-65
2022/01/09 03:19:04;;;;;;;19.38;4.75;;;4.80;99.90;;;;;;5070517;28;20044;-64
2022/01/09 03:21:29;;;;;;;24.02;5.13;;;4.70;99.90;;;;;;5069956;28;20488;-65
2022/01/09 03:23:55;;;;;;;17.17;4.45;;;4.80;99.90;;;;;;5071140;28;20052;-65
2022/01/09 03:26:21;;;;;;;16.98;4.00;;;4.80;99.90;;;;;;5077678;28;20576;-65
2022/01/09 03:28:46;;;;;;;13.38;3.45;;;4.80;99.90;;;;;;5071517;28;20051;-64
2022/01/09 03:31:12;;;;;;;13.48;3.80;;;4.90;99.90;;;;;;5070263;28;20139;-64
2022/01/09 03:33:38;;;;;;;19.05;4.53;;;4.90;99.90;;;;;;5053035;28;20497;-64
2022/01/09 03:36:04;;;;;;;21.45;4.90;;;5.00;99.90;;;;;;5104047;28;20050;-67
2022/01/09 03:38:30;;;;;;;17.17;4.68;;;4.90;99.90;;;;;;5069011;28;20432;-65
2022/01/09 03:40:55;;;;;;;19.42;4.43;;;4.90;99.90;;;;;;5070454;28;20044;-65
2022/01/09 03:43:21;;;;;;;24.73;4.28;;;4.90;99.90;;;;;;5070356;28;20101;-65
2022/01/09 03:45:47;;;;;;;24.23;4.53;;;5.00;99.90;;;;;;5070756;28;20044;-65
2022/01/09 03:48:12;;;;;;;17.38;4.15;;;5.00;99.90;;;;;;5079133;28;20246;-65
2022/01/09 03:50:38;;;;;;;20.33;4.35;;;5.00;99.90;;;;;;5068613;28;20135;-64
2022/01/09 03:53:04;;;;;;;19.20;3.35;;;5.00;99.90;;;;;;5070280;28;20102;-67
2022/01/09 03:55:30;;;;;;;24.73;4.25;;;5.00;99.90;;;;;;5070359;28;20060;-64
2022/01/09 03:57:56;;;;;;;25.23;3.15;;;4.90;99.90;;;;;;5078453;28;20051;-64
2022/01/09 04:00:24;;;;;;;22.50;3.85;;;5.00;99.90;;;;;;5069732;28;20113;-64
2022/01/09 04:02:50;;;;;;;16.75;3.35;;;5.00;99.90;;;;;;5070598;28;20048;-64
2022/01/09 04:05:17;;;;;;;22.73;3.80;;;5.00;99.90;;;;;;5069939;28;20056;-65
2022/01/09 04:07:43;;;;;;;16.30;3.35;;;5.00;99.90;;;;;;5074400;28;20533;-64
2022/01/09 04:10:10;;;;;;;27.73;4.50;;;5.00;99.90;;;;;;5074188;28;20463;-65
2022/01/09 04:12:47;;;;;;;26.58;4.30;;;5.00;99.90;;;;;;5070445;28;20052;-64
2022/01/09 04:15:13;;;;;;;26.50;5.32;;;5.00;99.90;;;;;;5053760;28;20059;-64
2022/01/09 04:17:53;;;;;;;40.15;5.53;;;5.20;99.90;;;;;;5070173;28;20048;-64
2022/01/09 04:20:27;;;;;;;46.13;7.47;;;5.10;99.90;;;;;;5068589;28;20413;-64
2022/01/09 04:22:53;;;;;;;36.72;6.03;;;5.20;99.90;;;;;;5070203;28;20264;-64
2022/01/09 04:25:19;;;;;;;46.10;7.75;;;5.30;99.90;;;;;;5069744;28;20397;-63
2022/01/09 04:27:47;;;;;;;52.28;6.80;;;5.30;99.90;;;;;;5070101;28;20044;-64
2022/01/09 04:30:14;;;;;;;34.08;5.90;;;5.40;99.90;;;;;;5070687;28;20040;-64
2022/01/09 04:32:40;;;;;;;36.67;5.03;;;5.40;99.90;;;;;;5070123;28;20054;-64
2022/01/09 04:35:06;;;;;;;40.90;6.65;;;5.40;99.90;;;;;;5069930;28;20041;-63
2022/01/09 04:37:34;;;;;;;36.17;6.95;;;5.40;99.90;;;;;;5069725;28;20048;-63
2022/01/09 04:40:00;;;;;;;38.58;6.35;;;5.40;99.90;;;;;;5082913;28;20091;-64
2022/01/09 04:42:34;;;;;;;31.48;7.20;;;5.40;99.90;;;;;;5067424;28;20045;-64
2022/01/09 04:45:00;;;;;;;30.20;5.60;;;5.40;99.90;;;;;;5069993;28;20059;-64
2022/01/09 04:47:26;;;;;;;33.00;5.45;;;5.50;99.90;;;;;;5084826;28;20051;-63
2022/01/09 04:49:51;;;;;;;32.70;6.18;;;5.50;99.90;;;;;;5070524;28;20482;-64
2022/01/09 04:52:21;;;;;;;39.63;6.68;;;5.50;99.90;;;;;;5069217;28;20037;-63
2022/01/09 04:54:47;;;;;;;31.02;5.15;;;5.40;99.90;;;;;;5089120;28;20174;-63
2022/01/09 04:57:13;;;;;;;30.88;5.43;;;5.50;99.90;;;;;;5073809;28;20052;-65
2022/01/09 04:59:38;;;;;;;32.20;5.35;;;5.50;99.90;;;;;;5072922;28;20060;-64
2022/01/09 05:02:05;;;;;;;32.42;5.15;;;5.50;99.90;;;;;;5072614;28;20056;-63
2022/01/09 05:04:31;;;;;;;36.15;6.53;;;5.50;99.90;;;;;;5073000;28;20052;-63
2022/01/09 05:06:56;;;;;;;28.90;5.28;;;5.60;99.90;;;;;;5073892;28;20048;-63
2022/01/09 05:09:22;;;;;;;33.00;5.45;;;5.60;99.90;;;;;;5072990;28;20044;-63
2022/01/09 05:11:48;;;;;;;30.35;5.25;;;5.60;99.90;;;;;;5075628;28;20612;-63
2022/01/09 05:14:13;;;;;;;36.45;5.63;;;5.60;99.90;;;;;;5105615;28;20082;-64
2022/01/09 05:16:43;;;;;;;31.55;5.60;;;5.60;99.90;;;;;;5072815;28;20045;-63
2022/01/09 05:19:17;;;;;;;27.58;4.53;;;5.60;99.90;;;;;;5073364;28;20167;-64
2022/01/09 05:21:43;;;;;;;28.20;4.57;;;5.60;99.90;;;;;;5076263;28;20052;-63
2022/01/09 05:24:09;;;;;;;31.02;6.03;;;5.60;99.90;;;;;;5073070;28;20048;-63
2022/01/09 05:26:34;;;;;;;31.08;6.15;;;5.60;99.90;;;;;;5072941;28;20504;-63
2022/01/09 05:29:00;;;;;;;27.58;4.60;;;5.70;99.90;;;;;;5073660;28;20044;-63
2022/01/09 05:31:26;;;;;;;27.85;5.70;;;5.70;99.90;;;;;;5075490;28;20048;-63
2022/01/09 05:33:52;;;;;;;26.80;4.30;;;5.60;99.90;;;;;;5071548;28;20148;-63
2022/01/09 05:36:18;;;;;;;23.65;4.97;;;5.60;99.90;;;;;;5073336;28;20083;-65
2022/01/09 05:38:43;;;;;;;30.63;5.60;;;5.60;99.90;;;;;;5073042;28;20674;-63
2022/01/09 05:41:09;;;;;;;32.83;5.47;;;5.60;99.90;;;;;;5073205;28;20079;-63
2022/01/09 05:43:36;;;;;;;24.88;4.88;;;6.00;99.90;;;;;;5075366;28;20098;-63
2022/01/09 05:46:01;;;;;;;32.53;5.65;;;5.60;99.90;;;;;;5072076;28;20084;-63
2022/01/09 05:48:27;;;;;;;30.30;5.43;;;5.60;99.90;;;;;;5087855;28;20084;-63
2022/01/09 05:50:53;;;;;;;23.20;5.15;;;5.50;99.90;;;;;;5072976;28;20056;-63
2022/01/09 05:53:18;;;;;;;24.58;4.88;;;5.50;99.90;;;;;;5073740;28;20544;-63
2022/01/09 05:55:44;;;;;;;31.42;5.15;;;5.50;99.90;;;;;;5071910;28;20052;-63
2022/01/09 05:58:10;;;;;;;24.50;4.68;;;5.50;99.90;;;;;;5072907;28;20149;-63
2022/01/09 06:00:35;;;;;;;26.55;3.92;;;5.50;99.90;;;;;;5072361;28;20052;-63
2022/01/09 06:03:01;;;;;;;27.33;4.57;;;5.50;99.90;;;;;;5073446;28;20041;-63
2022/01/09 06:05:27;;;;;;;19.88;4.00;;;5.40;99.90;;;;;;5070971;28;20045;-63
2022/01/09 06:07:52;;;;;;;22.02;3.88;;;5.50;99.90;;;;;;5072455;28;20044;-63
2022/01/09 06:10:18;;;;;;;24.67;4.03;;;5.50;99.90;;;;;;5071117;28;20052;-63
2022/01/09 06:12:44;;;;;;;27.17;5.00;;;5.40;99.90;;;;;;5072513;28;20109;-63
2022/01/09 06:15:11;;;;;;;17.60;3.65;;;5.40;99.90;;;;;;5073222;28;20071;-63
2022/01/09 06:17:44;;;;;;;25.50;4.50;;;5.40;99.90;;;;;;5071660;28;20120;-63
2022/01/09 06:20:12;;;;;;;15.00;2.97;;;5.40;99.90;;;;;;5072594;28;20051;-63
2022/01/09 06:22:38;;;;;;;26.95;4.40;;;5.40;99.90;;;;;;5070600;28;20508;-64
2022/01/09 06:25:05;;;;;;;21.73;3.90;;;5.50;99.90;;;;;;5075152;28;20048;-64
2022/01/09 06:27:31;;;;;;;30.80;5.75;;;5.40;99.90;;;;;;5103427;28;20044;-63
2022/01/09 06:29:57;;;;;;;24.33;4.53;;;5.40;99.90;;;;;;5072036;28;20044;-63
2022/01/09 06:32:23;;;;;;;23.70;3.92;;;5.40;99.90;;;;;;5072511;28;20091;-63
2022/01/09 06:34:49;;;;;;;20.38;4.38;;;5.40;99.90;;;;;;5072497;28;20485;-63
2022/01/09 06:37:16;;;;;;;22.73;4.55;;;5.40;99.90;;;;;;5071817;28;20431;-63
2022/01/09 06:39:43;;;;;;;20.70;4.20;;;5.40;99.90;;;;;;5070285;28;20065;-63
2022/01/09 06:42:09;;;;;;;19.42;3.45;;;5.30;99.90;;;;;;5070976;28;20131;-64
2022/01/09 06:44:35;;;;;;;24.80;3.53;;;5.30;99.90;;;;;;5073378;28;20076;-63
2022/01/09 06:47:01;;;;;;;22.40;3.58;;;5.30;99.90;;;;;;5071805;28;20071;-64
2022/01/09 06:49:27;;;;;;;19.80;3.17;;;5.30;99.90;;;;;;5071692;28;20107;-63
2022/01/09 06:51:52;;;;;;;24.77;3.70;;;5.30;99.90;;;;;;5070571;28;20131;-63
2022/01/09 06:54:18;;;;;;;22.80;4.47;;;5.30;99.90;;;;;;5070483;28;20123;-64
2022/01/09 06:56:44;;;;;;;15.88;3.08;;;5.30;99.90;;;;;;5074966;28;20044;-63
2022/01/09 06:59:10;;;;;;;21.27;3.63;;;5.30;99.90;;;;;;5103739;28;20044;-63
2022/01/09 07:01:36;;;;;;;18.40;4.43;;;5.30;99.90;;;;;;5071613;28;20045;-63
2022/01/09 07:04:01;;;;;;;20.25;3.63;;;5.30;99.90;;;;;;5070772;28;20044;-64
2022/01/09 07:06:27;;;;;;;19.80;4.55;;;5.30;99.90;;;;;;5076845;28;20051;-63
2022/01/09 07:08:53;;;;;;;21.70;3.63;;;5.30;99.90;;;;;;5070692;28;20049;-63
2022/01/09 07:11:18;;;;;;;15.82;3.45;;;5.30;99.90;;;;;;5071295;28;20056;-63
2022/01/09 07:13:44;;;;;;;22.55;3.40;;;5.30;99.90;;;;;;5069535;28;20135;-63
2022/01/09 07:16:10;;;;;;;19.52;4.57;;;5.30;99.90;;;;;;5071838;28;20047;-63
2022/01/09 07:18:35;;;;;;;21.58;4.20;;;5.30;99.90;;;;;;5069527;28;20043;-63
2022/01/09 07:21:03;;;;;;;24.30;4.10;;;5.30;99.90;;;;;;5069755;28;20460;-64
2022/01/09 07:23:32;;;;;;;16.65;3.90;;;5.30;99.90;;;;;;5071044;28;20454;-63
2022/01/09 07:25:58;;;;;;;20.90;4.38;;;5.20;99.90;;;;;;5073079;28;20052;-62
2022/01/09 07:28:25;;;;;;;15.40;3.63;;;5.20;99.90;;;;;;5074140;28;20048;-63
2022/01/09 07:30:50;;;;;;;18.15;3.08;;;5.20;99.90;;;;;;5070279;28;20083;-62
2022/01/09 07:33:16;;;;;;;17.73;3.00;;;5.20;99.90;;;;;;5065033;28;20076;-63
2022/01/09 07:35:42;;;;;;;16.13;3.40;;;5.30;99.90;;;;;;5061548;28;20159;-63
2022/01/09 07:38:08;;;;;;;20.05;4.43;;;5.40;99.90;;;;;;5070281;28;20055;-63
2022/01/09 07:40:34;;;;;;;17.65;3.45;;;5.20;99.90;;;;;;5103193;28;20052;-62
2022/01/09 07:43:00;;;;;;;20.63;3.58;;;5.20;99.90;;;;;;5070300;28;20445;-62
2022/01/09 07:45:27;;;;;;;20.30;3.65;;;5.20;99.90;;;;;;5070527;28;20496;-62
2022/01/09 07:47:55;;;;;;;21.90;3.35;;;5.20;99.90;;;;;;5080362;28;20062;-62
2022/01/09 07:50:22;;;;;;;19.98;3.55;;;5.10;99.90;;;;;;5090807;28;20036;-63
2022/01/09 07:52:48;;;;;;;20.55;3.70;;;5.10;99.90;;;;;;5071123;28;20135;-62
2022/01/09 07:55:14;;;;;;;23.20;3.55;;;5.10;99.90;;;;;;5070551;28;20463;-63
2022/01/09 07:57:41;;;;;;;21.65;4.38;;;5.10;99.90;;;;;;5070018;28;20051;-64
2022/01/09 08:00:09;;;;;;;24.17;3.88;;;5.10;99.90;;;;;;5090693;28;20074;-63
2022/01/09 08:02:35;;;;;;;16.85;3.15;;;5.10;99.90;;;;;;5077228;28;20075;-63
2022/01/09 08:05:01;;;;;;;18.17;3.30;;;5.10;99.90;;;;;;5069816;28;20102;-62
2022/01/09 08:07:27;;;;;;;21.35;3.42;;;5.10;99.90;;;;;;5070478;28;20390;-62
2022/01/09 08:09:53;;;;;;;18.63;3.78;;;5.10;99.90;;;;;;5067184;28;20061;-63
2022/01/09 08:12:19;;;;;;;22.02;3.75;;;5.00;99.90;;;;;;5057762;28;20064;-62
2022/01/09 08:14:45;;;;;;;23.90;4.32;;;5.00;99.90;;;;;;5069818;28;20048;-64
2022/01/09 08:17:12;;;;;;;19.75;3.60;;;5.00;99.90;;;;;;5068639;28;20044;-61
2022/01/09 08:19:38;;;;;;;20.55;3.30;;;5.00;99.90;;;;;;5084831;28;20040;-61
2022/01/09 08:22:05;;;;;;;17.73;3.78;;;5.00;99.90;;;;;;5089300;28;20074;-62
2022/01/09 08:24:31;;;;;;;25.33;3.80;;;5.00;99.90;;;;;;5069872;28;20044;-62
2022/01/09 08:26:57;;;;;;;17.63;3.10;;;5.00;99.90;;;;;;5068532;28;20417;-62
2022/01/09 08:29:23;;;;;;;16.75;3.55;;;4.90;99.90;;;;;;5078969;28;20421;-62
2022/01/09 08:31:48;;;;;;;13.40;2.78;;;5.00;99.90;;;;;;5089917;28;20130;-62
2022/01/09 08:34:14;;;;;;;14.27;3.80;;;5.00;99.90;;;;;;5074564;28;20040;-63
2022/01/09 08:36:40;;;;;;;13.80;2.83;;;4.90;99.90;;;;;;5068660;28;20127;-62
2022/01/09 08:39:06;;;;;;;19.65;3.38;;;4.90;99.90;;;;;;5069513;28;20494;-62
2022/01/09 08:41:33;;;;;;;19.38;4.30;;;4.90;99.90;;;;;;5089988;28;20063;-62
2022/01/09 08:44:01;;;;;;;15.30;3.25;;;4.90;99.90;;;;;;5082733;28;20040;-63
2022/01/09 08:46:28;;;;;;;16.40;2.83;;;4.90;99.90;;;;;;5073453;28;20048;-64
2022/01/09 08:48:54;;;;;;;14.18;2.60;;;4.90;99.90;;;;;;5068946;28;20527;-62
2022/01/09 08:51:19;;;;;;;15.65;3.20;;;5.00;99.90;;;;;;5070232;28;20052;-65
2022/01/09 08:53:50;;;;;;;18.88;2.63;;;5.00;99.90;;;;;;5069410;28;20378;-66
2022/01/09 08:56:18;;;;;;;16.75;3.10;;;5.00;99.90;;;;;;5068878;28;20094;-65
2022/01/09 08:58:44;;;;;;;12.57;3.00;;;5.00;99.90;;;;;;5069888;28;20063;-64
2022/01/09 09:01:10;;;;;;;21.45;3.10;;;5.00;99.90;;;;;;5052016;28;20418;-64
2022/01/09 09:03:40;;;;;;;16.13;2.60;;;5.00;99.90;;;;;;5066323;28;20148;-64
2022/01/09 09:06:12;;;;;;;13.23;2.58;;;5.00;99.90;;;;;;5069615;28;20040;-63
2022/01/09 09:08:39;;;;;;;19.08;3.20;;;5.00;99.90;;;;;;5068384;28;20464;-64
2022/01/09 09:11:05;;;;;;;17.45;3.58;;;5.00;99.90;;;;;;5067608;28;20482;-63
2022/01/09 09:13:31;;;;;;;10.75;2.88;;;5.00;99.90;;;;;;5069633;28;20063;-63
2022/01/09 09:15:57;;;;;;;17.33;2.70;;;5.00;99.90;;;;;;5068516;28;20417;-64
2022/01/09 09:18:23;;;;;;;19.58;3.60;;;5.20;99.90;;;;;;5068138;28;20117;-63
2022/01/09 09:20:48;;;;;;;14.57;3.55;;;5.00;99.90;;;;;;5051690;28;20071;-63
2022/01/09 09:23:14;;;;;;;18.40;3.17;;;5.10;99.90;;;;;;5068958;28;20127;-65
2022/01/09 09:25:40;;;;;;;8.98;2.42;;;5.10;99.90;;;;;;5034803;28;20052;-64
2022/01/09 09:28:06;;;;;;;17.20;2.67;;;5.10;99.90;;;;;;5068829;28;20489;-65
2022/01/09 09:30:31;;;;;;;14.27;2.50;;;5.20;99.90;;;;;;5069745;28;20044;-65
2022/01/09 09:32:57;;;;;;;16.55;2.28;;;5.20;99.90;;;;;;5067843;28;20044;-65
2022/01/09 09:35:24;;;;;;;13.95;2.35;;;5.30;99.90;;;;;;5050736;28;20102;-65
2022/01/09 09:37:50;;;;;;;18.35;3.58;;;5.30;99.90;;;;;;5049459;28;20132;-64
2022/01/09 09:40:19;;;;;;;14.05;3.05;;;5.40;99.90;;;;;;5072479;28;20206;-63
2022/01/09 09:42:45;;;;;;;17.70;3.67;;;5.40;99.90;;;;;;5073029;28;20404;-63
2022/01/09 09:45:11;;;;;;;12.32;2.90;;;5.40;99.90;;;;;;5071970;28;20044;-62
2022/01/09 09:47:39;;;;;;;11.82;2.40;;;5.40;99.90;;;;;;5073526;28;20079;-64
2022/01/09 09:50:07;;;;;;;12.88;2.70;;;5.40;99.90;;;;;;5071938;28;20069;-62
2022/01/09 09:52:33;;;;;;;11.73;2.50;;;5.40;99.90;;;;;;5072847;28;20052;-63
2022/01/09 09:55:00;;;;;;;14.68;3.35;;;5.40;99.90;;;;;;5071797;28;20044;-63
2022/01/09 09:57:27;;;;;;;8.93;2.03;;;5.40;99.90;;;;;;5073484;28;20043;-63
2022/01/09 10:00:18;;;;;;;16.60;3.45;;;5.50;99.90;;;;;;5067272;28;20048;-63
2022/01/09 10:02:54;;;;;;;7.32;2.47;;;5.50;99.90;;;;;;5071352;28;20060;-64
2022/01/09 10:05:23;;;;;;;8.95;2.20;;;5.40;99.90;;;;;;5072223;28;20432;-63
2022/01/09 10:07:53;;;;;;;11.13;2.80;;;5.50;99.90;;;;;;5071259;28;20091;-64
2022/01/09 10:10:20;;;;;;;14.15;2.92;;;5.50;99.90;;;;;;5071830;28;20044;-64
2022/01/09 10:12:48;;;;;;;14.15;3.38;;;5.50;99.90;;;;;;5072331;28;20063;-64
2022/01/09 10:15:20;;;;;;;9.32;2.15;;;5.60;99.90;;;;;;5070113;28;20052;-64
2022/01/09 10:17:50;;;;;;;12.93;2.75;;;5.60;99.90;;;;;;5072164;28;20068;-63
2022/01/09 10:20:21;;;;;;;9.13;2.28;;;5.60;99.90;;;;;;5072108;28;20045;-64
2022/01/09 10:22:52;;;;;;;15.90;3.05;;;5.60;99.90;;;;;;5065920;28;20097;-64
2022/01/09 10:25:38;;;;;;;16.20;2.72;;;5.60;99.90;;;;;;5070012;28;20053;-64
2022/01/09 10:28:17;;;;;;;10.48;2.60;;;5.60;99.90;;;;;;5070714;28;20071;-64
2022/01/09 10:30:44;;;;;;;11.00;2.35;;;5.60;99.90;;;;;;5053427;28;20047;-66
2022/01/09 10:33:15;;;;;;;11.20;3.00;;;5.70;99.90;;;;;;5065420;28;20037;-63
2022/01/09 10:35:46;;;;;;;11.38;2.88;;;5.70;99.90;;;;;;5067250;28;20581;-62
2022/01/09 10:38:27;;;;;;;8.68;2.15;;;5.80;99.90;;;;;;5070535;28;20036;-62
2022/01/09 10:40:57;;;;;;;19.27;3.50;;;5.80;99.90;;;;;;5071657;28;20066;-63
2022/01/09 10:43:34;;;;;;;16.45;2.97;;;5.80;99.90;;;;;;5069991;28;20465;-63
2022/01/09 10:45:59;;;;;;;15.05;2.60;;;5.70;99.90;;;;;;5067893;28;20047;-63
2022/01/09 10:48:39;;;;;;;10.90;2.33;;;5.70;99.90;;;;;;5070206;28;20052;-63
2022/01/09 10:51:07;;;;;;;10.13;3.35;;;5.70;99.90;;;;;;5066884;28;20106;-66
2022/01/09 10:53:41;;;;;;;8.82;2.20;;;5.70;99.90;;;;;;5070704;28;20139;-64
2022/01/09 10:56:20;;;;;;;15.45;2.50;;;5.70;99.90;;;;;;5069171;28;20041;-65
2022/01/09 10:58:49;;;;;;;14.13;2.92;;;5.70;99.90;;;;;;5071570;28;20037;-64
2022/01/09 11:01:26;;;;;;;12.75;2.78;;;5.70;99.90;;;;;;5068061;28;20512;-64
2022/01/09 11:04:04;;;;;;;11.93;2.83;;;5.70;99.90;;;;;;5061336;28;20047;-64
2022/01/09 11:06:32;;;;;;;10.27;2.67;;;5.70;99.90;;;;;;5071704;28;20493;-64
2022/01/09 11:09:00;;;;;;;13.85;3.72;;;5.70;99.90;;;;;;5068458;28;20036;-65
2022/01/09 11:11:46;;;;;;;12.05;2.63;;;5.70;99.90;;;;;;5052114;28;20057;-65
2022/01/09 11:14:17;;;;;;;15.63;2.50;;;5.70;99.90;;;;;;5068476;28;20052;-64
2022/01/09 11:16:51;;;;;;;11.65;2.30;;;5.70;99.90;;;;;;5066580;28;20425;-63
2022/01/09 11:19:23;;;;;;;10.98;2.50;;;5.70;99.90;;;;;;5068125;28;20411;-64
2022/01/09 11:21:59;;;;;;;11.70;2.92;;;5.70;99.90;;;;;;5069301;28;20048;-65
2022/01/09 11:24:53;;;;;;;15.73;3.08;;;5.70;99.90;;;;;;5069791;28;20076;-64
2022/01/09 11:27:23;;;;;;;13.05;2.67;;;5.80;99.90;;;;;;5068313;28;20113;-66
2022/01/09 11:30:06;;;;;;;10.43;3.35;;;5.80;99.90;;;;;;5053912;28;20063;-64
2022/01/09 11:32:35;;;;;;;11.07;2.67;;;5.80;99.90;;;;;;5069136;28;20048;-64
2022/01/09 11:35:12;;;;;;;13.15;2.15;;;5.90;99.90;;;;;;5070618;28;20102;-64
2022/01/09 11:37:40;;;;;;;12.82;2.78;;;5.90;99.90;;;;;;5069840;28;20063;-64
2022/01/09 11:40:30;;;;;;;8.88;2.35;;;5.90;99.90;;;;;;5070594;28;20123;-64
2022/01/09 11:43:14;;;;;;;11.30;3.00;;;5.90;99.90;;;;;;5068951;28;20512;-64
2022/01/09 11:45:55;;;;;;;14.98;3.25;;;6.00;99.90;;;;;;5096137;28;20131;-64
2022/01/09 11:48:42;;;;;;;13.48;2.60;;;6.00;99.90;;;;;;5069022;28;20050;-64
2022/01/09 11:51:09;;;;;;;15.13;2.55;;;6.00;99.90;;;;;;5074900;28;20081;-64
2022/01/09 11:54:02;;;;;;;13.63;3.03;;;6.10;99.90;;;;;;5068318;28;20078;-64
2022/01/09 11:57:06;;;;;;;16.50;3.13;;;6.10;99.90;;;;;;5069650;28;20099;-63
2022/01/09 11:59:33;;;;;;;15.48;2.80;;;6.10;99.90;;;;;;5069541;28;20290;-65
2022/01/09 12:02:01;;;;;;;14.00;2.60;;;6.20;99.90;;;;;;5075888;28;20132;-65
2022/01/09 12:04:38;;;;;;;14.18;2.63;;;6.20;99.90;;;;;;5062632;28;20075;-65
2022/01/09 12:07:10;;;;;;;15.82;2.63;;;6.20;99.90;;;;;;5067428;28;20132;-64
2022/01/09 12:09:46;;;;;;;19.00;4.03;;;6.30;99.90;;;;;;5067055;28;20044;-64
2022/01/09 12:12:16;;;;;;;6.93;1.95;;;6.40;99.90;;;;;;5078154;28;20059;-63
2022/01/09 12:14:42;;;;;;;13.27;2.30;;;6.40;99.90;;;;;;5069852;28;20048;-64
2022/01/09 12:17:23;;;;;;;14.05;2.22;;;6.50;99.90;;;;;;5068347;28;20135;-65
2022/01/09 12:20:01;;;;;;;14.07;2.60;;;6.60;99.90;;;;;;5069477;28;20110;-64
2022/01/09 12:22:53;;;;;;;15.32;2.28;;;6.60;99.90;;;;;;5060662;28;20106;-65
2022/01/09 12:25:22;;;;;;;14.30;2.53;;;6.60;99.90;;;;;;5062992;28;20135;-65
2022/01/09 12:27:56;;;;;;;12.57;2.45;;;6.70;99.90;;;;;;5070009;28;20044;-63
2022/01/09 12:30:43;;;;;;;;;;;6.70;99.90;;;;;;5068774;28;20077;-64
2022/01/09 12:33:10;;;;;;;6.05;2.53;;;6.80;99.90;;;;;;5068713;28;19924;-64
2022/01/09 12:35:47;;;;;;;11.85;2.50;;;6.70;99.90;;;;;;5062793;28;20051;-64
2022/01/09 12:38:18;;;;;;;14.65;2.78;;;6.70;99.90;;;;;;5049999;28;20053;-64
2022/01/09 12:40:44;;;;;;;11.55;2.67;;;6.80;99.90;;;;;;5069921;28;20044;-64
2022/01/09 12:43:12;;;;;;;13.20;3.00;;;6.80;99.90;;;;;;5055017;28;20048;-64
2022/01/09 12:45:43;;;;;;;11.52;2.40;;;6.80;99.90;;;;;;5067793;28;20101;-64
2022/01/09 12:48:21;;;;;;;11.38;2.13;;;6.90;99.90;;;;;;5068510;28;20048;-64
2022/01/09 12:50:48;;;;;;;11.77;1.92;;;6.90;99.90;;;;;;5068545;28;20045;-64
2022/01/09 12:53:28;;;;;;;10.60;2.78;;;6.90;99.90;;;;;;5068404;28;20060;-64
2022/01/09 12:56:04;;;;;;;9.75;2.35;;;7.00;99.90;;;;;;5069386;28;20056;-64